Meteo Giornale » Osservazioni meteo Italia » Verona-Villafranca

ore: 03:20 - Osservazioni Meteo Verona-Villafranca
Lat. 45° 23' N Lon. 10° 52' E Alt. 67 metri s.l.m.

sereno

21 °C

Sereno

Temp. 24 Ore

19 °C

32 °C

Nord

1.8 Km/h

Dew point 18 °C

Umidità 82 %

Visibilità  10 Km

Il sole sorge alle ore 06:38

Il sole tramonta alle ore 19:54

Data e Ora Cielo e Fenomeni T °C DP °C Um. % Pres. hPa Vis. km Vento km/h
Oggi h: 03:20 sereno Sereno 21 18 82 1015 10 N 1.8
Oggi h: 02:50 sereno Sereno 21 18 82 1015 10 N 5.5
Oggi h: 02:20 sereno Sereno 24 17 64 1015 10 N 1.8
Oggi h: 01:50 sereno Sereno 22 18 78 1014 10 N 1.8
Oggi h: 01:20 sereno Sereno 23 18 73 1014 10 N 5.5
Oggi h: 00:50 sereno Sereno 23 18 73 1014 10 E/NE 7.4
Oggi h: 00:20 sereno Sereno 22 19 83 1014 10 S/SE 7.4
Ieri h: 23:50 sereno Sereno 23 18 73 1013 10 N 3.7
Ieri h: 23:20 sereno Sereno 24 18 69 1013 10 N 5.5
Ieri h: 22:50 sereno Sereno 24 18 69 1013 10 NO 7.4
Ieri h: 22:20 sereno Sereno 25 18 65 1013 10 N 5.5
Ieri h: 21:50 sereno Sereno 25 18 65 1013 10 N 3.7
Ieri h: 21:20 sereno Sereno 26 18 61 1013 10 N 1.8
Ieri h: 20:50 sereno Sereno 26 19 65 1012 10 N 3.7
Ieri h: 20:20 sereno Sereno 28 18 54 1012 10 N 5.5
Ieri h: 19:50 sereno Sereno 29 18 51 1012 10 O/SO 7.4
Ieri h: 19:20 sereno Sereno 30 17 45 1012 10 SO 9.3
Ieri h: 18:50 sereno Sereno 32 16 38 1012 10 SO 7.4
Ieri h: 17:50 sereno Sereno 32 16 38 1012 10 SO 11.1
Ieri h: 17:20 sereno Sereno 32 16 38 1013 10 O/SO 14.8
Ieri h: 16:50 sereno Sereno 32 17 40 1013 10 SO 14.8
Ieri h: 09:20 sereno Sereno 26 18 61 1014 10 N 1.8
Ieri h: 08:50 sereno Sereno 25 18 65 1014 10 N 1.8
Ieri h: 08:20 sereno Sereno 23 17 68 1014 10 N 1.8
Ieri h: 07:50 sereno Sereno 22 17 73 1014 10 NO 7.4
Ieri h: 07:20 sereno Sereno 21 16 73 1014 10 N 3.7
Ieri h: 06:50 sereno Sereno 21 16 73 1014 10 N 5.5
Ieri h: 06:20 sereno Sereno 19 16 82 1013 10 N/NO 7.4
Ieri h: 05:50 sereno Sereno 20 16 77 1014 10 N/NO 9.3
Ieri h: 05:20 sereno Sereno 20 16 77 1014 10 N/NO 9.3
Ieri h: 04:50 sereno Sereno 20 16 77 1014 10 N 3.7
Ieri h: 04:20 sereno Sereno 20 16 77 1014 10 N/NO 7.4
Ieri h: 03:50 sereno Sereno 20 16 77 1014 10 N 5.5